Time;durP1;ratioP1;P1;durP2;ratioP2;P2;SDS_P1;SDS_P2;PMS_P1;PMS_P2;Temp;Humidity;BMP_temperature;BMP_pressure;BME280_temperature;BME280_humidity;BME280_pressure;Samples;Min_cycle;Max_cycle;Signal;HPM_P1;HPM_P2
2022/04/10 00:01:58;;;;;;;18.00;4.95;;;;;;;24.53;28.41;101196.81;5032316;28;20037;-61
2022/04/10 00:04:24;;;;;;;14.88;4.35;;;;;;;24.84;29.68;101202.75;5033194;28;20034;-65
2022/04/10 00:06:50;;;;;;;15.95;5.20;;;;;;;24.44;29.12;101202.13;5045732;28;20025;-61
2022/04/10 00:09:17;;;;;;;15.20;4.28;;;;;;;24.29;29.09;101194.84;5052254;28;20135;-62
2022/04/10 00:11:43;;;;;;;15.60;4.70;;;;;;;23.96;30.18;101188.34;5055032;22;20045;-62
2022/04/10 00:14:09;;;;;;;12.80;4.25;;;;;;;24.03;30.28;101201.66;5052608;28;20124;-63
2022/04/10 00:16:35;;;;;;;14.63;4.55;;;;;;;24.08;31.88;101198.88;5052225;28;20051;-62
2022/04/10 00:19:04;;;;;;;12.70;4.53;;;;;;;23.49;32.17;101197.97;5053597;28;20028;-62
2022/04/10 00:21:33;;;;;;;13.43;5.05;;;;;;;22.86;32.33;101203.19;5050255;28;20032;-61
2022/04/10 00:24:00;;;;;;;13.13;4.63;;;;;;;22.91;30.29;101209.47;5053467;28;20025;-64
2022/04/10 00:26:26;;;;;;;15.57;4.25;;;;;;;23.41;32.61;101207.56;5052607;28;20480;-66
2022/04/10 00:28:53;;;;;;;18.65;5.53;;;;;;;23.53;32.46;101212.69;5052270;28;20025;-61
2022/04/10 00:31:20;;;;;;;11.77;4.00;;;;;;;23.59;28.30;101202.53;5052705;28;20061;-63
2022/04/10 00:33:46;;;;;;;9.45;3.00;;;;;;;23.29;26.04;101211.75;5052382;28;20041;-59
2022/04/10 00:36:12;;;;;;;8.30;3.30;;;;;;;23.20;26.35;101211.53;5052293;28;20032;-61
2022/04/10 00:38:39;;;;;;;9.52;3.13;;;;;;;23.02;28.42;101206.72;5053098;28;20528;-60
2022/04/10 00:41:05;;;;;;;8.23;2.97;;;;;;;23.21;25.42;101212.34;5051567;28;20037;-60
2022/04/10 00:43:32;;;;;;;11.27;3.17;;;;;;;23.09;26.29;101210.75;5032580;28;20483;-58
2022/04/10 00:46:00;;;;;;;10.02;3.53;;;;;;;22.80;26.76;101216.03;5032855;28;20454;-58
2022/04/10 00:48:26;;;;;;;10.07;3.10;;;;;;;22.91;27.17;101211.41;5023851;28;20041;-58
2022/04/10 00:53:39;;;;;;;12.13;3.50;;;;;;;22.75;27.63;101223.44;5014518;28;20032;-58
2022/04/10 00:56:06;;;;;;;12.57;3.47;;;;;;;22.66;27.29;101213.09;5013113;28;20109;-58
2022/04/10 00:58:32;;;;;;;12.52;4.07;;;;;;;22.37;27.67;101212.88;5024901;28;20029;-58
2022/04/10 01:00:59;;;;;;;8.98;3.38;;;;;;;22.26;27.52;101214.00;5032661;28;20053;-58
2022/04/10 01:03:25;;;;;;;8.45;3.30;;;;;;;22.37;27.98;101209.34;5031926;28;20543;-57
2022/04/10 01:05:51;;;;;;;10.35;3.42;;;;;;;22.23;27.98;101211.00;5025331;28;20064;-58
2022/04/10 01:08:19;;;;;;;7.40;2.78;;;;;;;21.93;28.34;101207.19;5028361;28;20503;-58
2022/04/10 01:10:45;;;;;;;11.45;3.40;;;;;;;22.01;28.59;101203.09;5026069;28;20370;-58
2022/04/10 01:13:11;;;;;;;12.15;3.83;;;;;;;21.93;29.46;101206.34;5026531;28;20029;-58
2022/04/10 01:15:38;;;;;;;13.00;3.78;;;;;;;22.03;29.72;101209.91;5023979;28;20057;-62
2022/04/10 01:18:06;;;;;;;10.57;3.22;;;;;;;21.99;28.38;101210.75;5025340;28;20029;-59
2022/04/10 01:20:33;;;;;;;9.68;3.47;;;;;;;21.92;29.25;101204.72;5024389;28;20685;-59
2022/04/10 01:23:01;;;;;;;9.48;3.20;;;;;;;21.69;29.36;101206.91;5011534;28;20564;-56
2022/04/10 01:25:28;;;;;;;10.45;3.90;;;;;;;21.73;29.70;101208.00;5021868;28;20029;-62
2022/04/10 01:27:54;;;;;;;16.95;3.92;;;;;;;21.60;30.19;101219.44;5032420;28;20021;-60
2022/04/10 01:30:20;;;;;;;8.68;3.40;;;;;;;21.44;30.14;101209.59;5029542;28;20025;-58
2022/04/10 01:32:46;;;;;;;11.32;3.70;;;;;;;21.39;29.99;101217.75;5021479;28;20021;-59
2022/04/10 01:35:13;;;;;;;10.38;3.53;;;;;;;21.45;29.76;101211.25;5022233;28;20049;-57
2022/04/10 01:37:40;;;;;;;10.18;3.35;;;;;;;21.15;29.43;101218.19;5031813;28;20049;-58
2022/04/10 01:40:07;;;;;;;10.85;3.67;;;;;;;21.15;29.62;101218.19;5030976;28;20029;-60
2022/04/10 01:42:33;;;;;;;16.98;4.60;;;;;;;21.14;30.44;101211.13;5030591;28;20041;-61
2022/04/10 01:44:59;;;;;;;14.13;4.05;;;;;;;21.02;30.75;101218.69;5031577;28;20127;-59
2022/04/10 01:47:26;;;;;;;9.20;3.08;;;;;;;20.98;30.42;101217.59;5032062;28;20421;-58
2022/04/10 01:49:52;;;;;;;11.40;3.25;;;;;;;20.75;30.98;101216.13;5030769;28;20060;-58
2022/04/10 01:52:18;;;;;;;10.10;3.72;;;;;;;20.63;31.07;101210.09;5031176;28;20026;-58
2022/04/10 01:54:44;;;;;;;16.00;4.00;;;;;;;20.48;31.46;101219.78;5031881;28;20032;-58
2022/04/10 01:57:10;;;;;;;7.80;3.63;;;;;;;20.56;31.38;101213.88;5031830;28;20053;-59
2022/04/10 01:59:37;;;;;;;9.77;3.28;;;;;;;20.48;32.35;101219.78;5030757;28;20033;-58
2022/04/10 02:02:03;;;;;;;13.48;3.55;;;;;;;20.25;32.13;101210.09;5031571;28;20057;-58
2022/04/10 02:04:30;;;;;;;12.80;4.00;;;;;;;20.29;32.13;101205.78;5030947;28;20112;-57
2022/04/10 02:06:56;;;;;;;13.63;4.25;;;;;;;20.33;32.02;101216.16;5033207;28;20021;-57
2022/04/10 02:09:22;;;;;;;13.07;4.25;;;;;;;20.25;31.99;101212.81;5023773;28;20032;-57
2022/04/10 02:11:50;;;;;;;13.80;3.63;;;;;;;20.33;32.32;101211.53;5016789;28;20049;-57
2022/04/10 02:14:16;;;;;;;10.07;4.00;;;;;;;20.31;32.50;101214.47;5031397;28;20538;-57
2022/04/10 02:16:42;;;;;;;11.30;3.63;;;;;;;20.26;32.82;101217.16;5031833;28;20079;-57
2022/04/10 02:19:08;;;;;;;14.43;3.55;;;;;;;20.28;32.84;101212.31;5025764;28;20018;-57
2022/04/10 02:21:36;;;;;;;14.73;4.05;;;;;;;20.23;33.19;101212.25;5031404;28;20120;-57
2022/04/10 02:24:02;;;;;;;15.40;3.90;;;;;;;20.29;34.01;101210.41;5030821;28;20029;-57
2022/04/10 02:26:28;;;;;;;11.77;3.45;;;;;;;20.22;33.40;101213.34;5031835;28;20036;-57
2022/04/10 02:28:55;;;;;;;13.57;4.13;;;;;;;20.27;34.28;101224.25;5031550;28;20021;-57
2022/04/10 02:31:21;;;;;;;17.15;4.20;;;;;;;20.11;34.67;101224.41;5021490;28;20420;-57
2022/04/10 02:33:47;;;;;;;16.17;4.78;;;;;;;20.04;34.47;101225.44;5036544;28;20128;-57
2022/04/10 02:36:16;;;;;;;15.85;4.25;;;;;;;19.93;34.89;101220.16;5031746;28;20484;-57
2022/04/10 02:38:43;;;;;;;16.75;4.85;;;;;;;19.96;34.26;101222.38;5031350;28;20108;-57
2022/04/10 02:41:10;;;;;;;14.10;4.00;;;;;;;19.68;34.48;101221.59;5031709;28;20056;-57
2022/04/10 02:43:39;;;;;;;17.48;4.80;;;;;;;19.68;34.43;101224.31;5031449;28;20044;-57
2022/04/10 02:46:06;;;;;;;12.93;4.32;;;;;;;19.58;34.68;101232.31;5034273;28;20021;-57
2022/04/10 02:48:33;;;;;;;14.35;4.53;;;;;;;19.41;35.07;101228.88;5035731;28;20057;-57
2022/04/10 02:50:59;;;;;;;14.45;3.72;;;;;;;19.13;35.94;101240.78;5035370;28;20388;-57
2022/04/10 02:53:25;;;;;;;14.43;5.15;;;;;;;19.34;34.63;101245.38;5035711;28;20109;-57
2022/04/10 02:55:52;;;;;;;12.73;4.68;;;;;;;19.11;35.74;101242.94;5035209;28;20033;-57
2022/04/10 02:58:18;;;;;;;13.27;4.00;;;;;;;19.10;36.17;101258.41;5035452;28;20028;-57
2022/04/10 03:00:44;;;;;;;15.88;4.65;;;;;;;18.91;35.53;101248.91;5034622;28;20022;-57
2022/04/10 03:03:11;;;;;;;15.75;4.22;;;;;;;19.12;35.41;101250.81;5035347;28;20029;-57
2022/04/10 03:05:37;;;;;;;14.98;4.43;;;;;;;19.07;35.94;101258.06;5030474;28;20060;-57
2022/04/10 03:08:03;;;;;;;11.77;3.78;;;;;;;18.82;36.66;101255.84;5014826;28;20033;-56
2022/04/10 03:10:30;;;;;;;13.50;4.22;;;;;;;18.88;36.16;101254.88;5014509;28;20477;-57
2022/04/10 03:12:56;;;;;;;14.73;4.20;;;;;;;18.84;36.41;101256.44;5020285;28;20081;-57
2022/04/10 03:15:22;;;;;;;14.15;4.68;;;;;;;18.70;36.32;101250.53;5035092;28;20099;-57
2022/04/10 03:17:48;;;;;;;12.50;4.35;;;;;;;18.71;36.48;101252.16;5034955;28;20036;-57
2022/04/10 03:20:15;;;;;;;9.57;3.83;;;;;;;18.63;36.66;101253.38;5034444;28;20029;-57
2022/04/10 03:22:41;;;;;;;16.60;4.40;;;;;;;18.87;36.98;101250.47;5034648;28;20036;-57
2022/04/10 03:25:09;;;;;;;16.55;4.28;;;;;;;18.71;36.63;101255.72;5016749;28;20030;-58
2022/04/10 03:27:35;;;;;;;15.43;4.88;;;;;;;18.47;37.11;101248.81;5032056;28;20396;-57
2022/04/10 03:30:02;;;;;;;13.98;4.82;;;;;;;18.10;38.26;101251.19;5033898;28;20151;-57
2022/04/10 03:32:28;;;;;;;16.25;4.20;;;;;;;18.36;37.93;101257.84;5034348;28;20385;-57
2022/04/10 03:34:54;;;;;;;12.32;4.50;;;;;;;18.14;38.58;101261.31;5034184;28;20469;-57
2022/04/10 03:37:21;;;;;;;14.98;4.75;;;;;;;17.96;39.29;101263.44;5034279;28;20397;-57
2022/04/10 03:39:47;;;;;;;16.35;4.72;;;;;;;17.94;39.63;101255.56;5034141;28;20017;-58
2022/04/10 03:42:13;;;;;;;12.35;5.00;;;;;;;17.77;39.86;101258.25;5034472;28;20477;-57
2022/04/10 03:44:40;;;;;;;15.02;5.88;;;;;;;17.57;40.65;101258.66;5034270;28;20042;-57
2022/04/10 03:47:06;;;;;;;15.13;4.85;;;;;;;17.65;40.94;101274.50;5033631;28;20028;-57
2022/04/10 03:49:33;;;;;;;11.07;4.70;;;;;;;17.60;41.29;101270.88;5016283;28;20033;-57
2022/04/10 03:51:59;;;;;;;13.98;5.40;;;;;;;17.40;41.58;101271.31;5033967;28;20028;-57
2022/04/10 03:54:25;;;;;;;19.38;5.60;;;;;;;17.49;42.30;101269.88;5033787;28;20416;-57
2022/04/10 03:56:51;;;;;;;18.27;4.90;;;;;;;17.49;40.70;101275.28;5033760;28;20025;-58
2022/04/10 03:59:17;;;;;;;19.63;5.70;;;;;;;17.12;41.44;101281.03;5033738;28;20022;-57
2022/04/10 04:01:44;;;;;;;14.73;5.20;;;;;;;17.28;40.54;101292.19;5015608;28;20037;-57
2022/04/10 04:04:10;;;;;;;16.95;5.10;;;;;;;17.33;41.04;101303.13;5021762;28;20022;-57
2022/04/10 04:06:36;;;;;;;16.85;4.65;;;;;;;17.30;40.78;101304.41;5033668;28;20392;-57
2022/04/10 04:09:02;;;;;;;19.38;5.45;;;;;;;16.82;41.81;101305.56;5033517;28;20029;-57
2022/04/10 04:11:28;;;;;;;15.95;4.72;;;;;;;16.57;42.40;101316.56;5033647;28;20042;-57
2022/04/10 04:13:55;;;;;;;18.35;5.68;;;;;;;16.71;41.29;101321.75;5033924;28;20481;-58
2022/04/10 04:16:21;;;;;;;17.85;4.80;;;;;;;16.56;41.57;101322.19;5033753;28;20501;-57
2022/04/10 04:18:48;;;;;;;15.73;5.22;;;;;;;16.39;42.19;101313.13;5033686;28;20021;-57
2022/04/10 04:21:14;;;;;;;18.00;5.47;;;;;;;16.44;41.93;101334.88;5033163;28;20028;-57
2022/04/10 04:23:40;;;;;;;15.02;6.22;;;;;;;16.31;41.65;101344.00;5033566;28;20064;-57
2022/04/10 04:26:07;;;;;;;16.85;5.82;;;;;;;16.25;41.69;101344.94;5032324;28;20033;-57
2022/04/10 04:28:36;;;;;;;15.80;5.75;;;;;;;16.13;41.48;101346.78;5031453;28;20139;-57
2022/04/10 04:31:02;;;;;;;18.55;5.40;;;;;;;16.01;41.80;101342.16;5033193;28;20025;-57
2022/04/10 04:33:28;;;;;;;17.58;5.90;;;;;;;15.91;42.24;101341.06;5033553;28;20057;-57
2022/04/10 04:35:54;;;;;;;17.15;5.22;;;;;;;15.72;42.86;101340.28;5033369;28;20639;-57
2022/04/10 04:38:20;;;;;;;19.13;5.28;;;;;;;15.78;43.36;101347.47;5032895;28;20029;-58
2022/04/10 04:40:46;;;;;;;15.10;5.68;;;;;;;15.66;43.83;101343.91;5031718;28;20033;-58
2022/04/10 04:43:13;;;;;;;19.50;5.15;;;;;;;15.72;44.47;101356.50;5033358;28;20039;-57
2022/04/10 04:45:39;;;;;;;19.20;5.35;;;;;;;15.76;44.29;101353.09;5033166;28;20025;-57
2022/04/10 04:48:05;;;;;;;26.85;5.95;;;;;;;15.78;44.85;101358.28;5033111;28;20353;-56
2022/04/10 04:50:31;;;;;;;17.23;5.30;;;;;;;15.32;46.25;101365.00;5032886;28;20057;-57
2022/04/10 04:52:58;;;;;;;16.20;5.55;;;;;;;15.47;45.87;101354.66;5032611;28;20033;-57
2022/04/10 04:55:24;;;;;;;20.85;6.35;;;;;;;15.42;46.04;101351.81;5032774;28;20030;-57
2022/04/10 04:57:50;;;;;;;27.00;5.97;;;;;;;15.43;46.05;101356.16;5033085;28;20079;-57
2022/04/10 05:00:17;;;;;;;22.92;5.45;;;;;;;15.48;45.97;101350.91;5032355;28;20377;-57
2022/04/10 05:02:44;;;;;;;14.98;4.95;;;;;;;15.49;45.97;101352.59;5032762;28;20021;-57
2022/04/10 05:05:10;;;;;;;14.20;5.22;;;;;;;15.39;46.40;101354.16;5032921;28;20026;-57
2022/04/10 05:07:36;;;;;;;19.45;5.32;;;;;;;15.44;46.14;101357.84;5032003;28;20431;-57
2022/04/10 05:10:03;;;;;;;16.33;4.38;;;;;;;15.33;46.29;101350.50;5032410;28;20576;-57
2022/04/10 05:12:32;;;;;;;16.02;5.35;;;;;;;15.45;46.40;101345.16;5031912;28;20163;-57
2022/04/10 05:14:59;;;;;;;18.10;5.53;;;;;;;15.36;46.29;101346.50;5032430;28;20401;-57
2022/04/10 05:17:26;;;;;;;16.35;4.68;;;;;;;15.17;46.34;101345.69;5032704;28;20490;-57
2022/04/10 05:19:53;;;;;;;15.50;4.55;;;;;;;15.34;46.53;101349.44;5032444;28;20021;-57
2022/04/10 05:22:19;;;;;;;18.52;4.93;;;;;;;15.32;46.47;101348.81;5032342;28;20030;-57
2022/04/10 05:24:46;;;;;;;13.25;4.93;;;;;;;15.27;45.98;101346.00;5032266;28;20036;-57
2022/04/10 05:27:12;;;;;;;11.95;4.25;;;;;;;15.31;46.18;101350.69;5032243;28;20469;-57
2022/04/10 05:29:38;;;;;;;14.95;4.32;;;;;;;15.30;45.75;101343.66;5032023;28;20191;-57
2022/04/10 05:32:05;;;;;;;17.80;4.68;;;;;;;15.59;45.20;101346.63;5032208;28;20100;-57
2022/04/10 05:34:31;;;;;;;17.15;5.55;;;;;;;15.48;45.10;101353.59;5032202;28;20636;-57
2022/04/10 05:36:57;;;;;;;15.52;4.93;;;;;;;15.65;44.74;101347.63;5031977;28;20480;-57
2022/04/10 05:39:23;;;;;;;14.77;4.93;;;;;;;15.38;45.31;101347.94;5031184;28;20127;-57
2022/04/10 05:41:50;;;;;;;23.52;5.72;;;;;;;15.37;45.61;101357.06;5032137;28;20114;-57
2022/04/10 05:44:16;;;;;;;19.35;5.55;;;;;;;15.35;45.42;101351.06;5031537;28;20028;-57
2022/04/10 05:46:42;;;;;;;18.85;5.50;;;;;;;15.01;46.49;101350.63;5029747;28;20025;-57
2022/04/10 05:49:09;;;;;;;17.83;5.57;;;;;;;14.99;46.77;101351.88;5032316;28;20068;-57
2022/04/10 05:51:35;;;;;;;17.70;5.18;;;;;;;14.90;46.65;101353.22;5030286;28;20116;-57
2022/04/10 05:54:01;;;;;;;15.55;5.18;;;;;;;14.68;47.08;101356.31;5030955;28;20041;-57
2022/04/10 05:56:27;;;;;;;11.57;4.30;;;;;;;14.78;47.51;101356.63;5031120;28;20025;-57
2022/04/10 05:58:54;;;;;;;15.45;5.40;;;;;;;14.69;47.62;101352.56;5031103;28;20516;-57
2022/04/10 06:01:20;;;;;;;21.73;5.75;;;;;;;14.90;47.17;101355.91;5030004;28;20033;-57
2022/04/10 06:03:46;;;;;;;20.98;5.25;;;;;;;14.79;47.27;101355.59;5031944;28;20482;-56
2022/04/10 06:06:12;;;;;;;18.67;5.18;;;;;;;14.74;47.30;101343.81;5030877;28;20035;-56
2022/04/10 06:08:38;;;;;;;13.70;4.95;;;;;;;14.55;47.77;101350.19;5031409;28;20111;-57
2022/04/10 06:11:05;;;;;;;17.27;5.25;;;;;;;14.34;48.32;101359.47;5031207;28;20075;-57
2022/04/10 06:13:31;;;;;;;16.95;4.63;;;;;;;14.26;48.71;101360.53;5030302;28;20038;-56
2022/04/10 06:15:57;;;;;;;17.95;5.47;;;;;;;14.07;49.41;101365.00;5030608;28;20158;-56
2022/04/10 06:18:23;;;;;;;17.15;5.07;;;;;;;14.31;48.54;101360.69;5031798;28;20485;-56
2022/04/10 06:20:49;;;;;;;21.38;5.43;;;;;;;14.39;48.55;101367.72;5029783;28;20026;-57
2022/04/10 06:23:16;;;;;;;15.32;4.47;;;;;;;14.15;49.42;101362.03;5031638;28;20033;-57
2022/04/10 06:25:42;;;;;;;12.32;4.57;;;;;;;14.24;49.42;101371.53;5030359;28;20037;-57
2022/04/10 06:28:10;;;;;;;15.55;4.47;;;;;;;14.06;50.01;101387.59;5031832;28;20026;-57
2022/04/10 06:30:36;;;;;;;16.00;4.97;;;;;;;13.86;50.45;101379.59;5029647;28;20555;-57
2022/04/10 06:33:02;;;;;;;16.88;5.10;;;;;;;13.97;50.57;101378.09;5013795;28;20416;-56
2022/04/10 06:35:29;;;;;;;22.50;5.18;;;;;;;13.90;51.34;101383.53;5029428;28;20033;-56
2022/04/10 06:37:55;;;;;;;12.77;4.30;;;;;;;13.76;51.71;101381.91;5031411;28;20023;-56
2022/04/10 06:40:21;;;;;;;14.27;4.57;;;;;;;13.78;51.77;101382.56;5030321;28;20448;-57
2022/04/10 06:42:48;;;;;;;12.27;4.38;;;;;;;13.79;51.81;101381.50;5031434;28;20101;-57
2022/04/10 06:45:14;;;;;;;22.15;4.60;;;;;;;13.67;52.18;101384.03;5030401;28;20159;-57
2022/04/10 06:47:40;;;;;;;16.38;4.20;;;;;;;13.95;51.67;101375.63;5031222;28;20026;-57
2022/04/10 06:50:07;;;;;;;15.68;4.70;;;;;;;13.87;51.33;101386.63;5031080;28;20437;-56
2022/04/10 06:52:35;;;;;;;14.85;4.38;;;;;;;13.88;51.54;101391.00;5029899;28;20433;-56
2022/04/10 06:55:02;;;;;;;18.23;4.63;;;;;;;14.04;51.12;101395.03;5030376;28;20033;-56
2022/04/10 06:57:28;;;;;;;13.15;4.15;;;;;;;13.51;52.02;101397.16;5031325;28;20100;-56
2022/04/10 06:59:54;;;;;;;20.90;4.40;;;;;;;13.42;52.11;101397.34;5028165;28;20033;-56
2022/04/10 07:02:21;;;;;;;13.88;4.15;;;;;;;13.60;51.30;101399.41;5030929;28;20056;-56
2022/04/10 07:04:47;;;;;;;13.48;3.83;;;;;;;13.77;51.29;101396.19;5029963;28;20037;-56
2022/04/10 07:07:13;;;;;;;15.90;4.30;;;;;;;13.57;51.54;101399.81;5031572;28;20140;-56
2022/04/10 07:09:39;;;;;;;13.40;4.25;;;;;;;13.53;51.67;101395.06;5030007;28;20030;-56
2022/04/10 07:12:06;;;;;;;11.98;3.83;;;;;;;13.51;52.21;101402.53;5029477;28;20041;-56
2022/04/10 07:14:32;;;;;;;12.63;3.80;;;;;;;13.59;52.34;101392.34;5031107;28;20069;-56
2022/04/10 07:16:58;;;;;;;12.80;4.18;;;;;;;13.49;52.54;101402.72;5029743;28;20069;-57
2022/04/10 07:19:25;;;;;;;11.98;3.55;;;;;;;13.51;52.30;101395.28;5029945;28;20036;-56
2022/04/10 07:24:35;;;;;;;15.65;4.72;;;;;;;13.64;52.42;101397.09;5030491;28;20445;-56
2022/04/10 07:27:02;;;;;;;18.13;4.32;;;;;;;13.64;52.01;101397.91;5013299;28;20014;-56
2022/04/10 07:29:28;;;;;;;12.93;3.67;;;;;;;13.46;52.48;101403.16;5029863;28;20144;-54
2022/04/10 07:31:54;;;;;;;14.45;3.90;;;;;;;13.25;53.14;101385.41;5032228;28;20032;-56
2022/04/10 07:34:20;;;;;;;20.15;5.00;;;;;;;13.43;52.84;101403.56;5032779;28;20519;-56
2022/04/10 07:36:46;;;;;;;14.00;4.30;;;;;;;13.31;53.60;101414.13;5034442;28;20492;-57
2022/04/10 07:39:12;;;;;;;14.43;4.60;;;;;;;13.38;53.36;101412.28;5033384;28;20065;-56
2022/04/10 07:41:39;;;;;;;13.07;3.92;;;;;;;13.20;53.68;101410.19;5033918;28;20056;-55
2022/04/10 07:44:05;;;;;;;11.15;4.20;;;;;;;13.30;53.71;101428.63;5033228;28;20032;-56
2022/04/10 07:49:16;;;;;;;11.57;3.70;;;;;;;13.26;53.88;101416.63;5033810;28;20128;-55
2022/04/10 07:51:42;;;;;;;8.95;3.47;;;;;;;13.29;54.26;101431.53;5033884;28;20033;-56
2022/04/10 07:54:08;;;;;;;14.73;4.55;;;;;;;13.00;54.96;101430.09;5032231;28;20075;-55
2022/04/10 07:56:35;;;;;;;15.63;4.75;;;;;;;12.97;55.00;101434.00;5034242;28;20053;-55
2022/04/10 07:59:01;;;;;;;24.83;5.03;;;;;;;12.78;56.09;101435.66;5032693;28;20060;-56
2022/04/10 08:01:27;;;;;;;16.25;4.65;;;;;;;12.59;56.34;101436.44;5033487;28;20545;-55
2022/04/10 08:03:53;;;;;;;15.90;4.10;;;;;;;12.65;56.34;101436.47;5032983;28;20057;-55
2022/04/10 08:06:20;;;;;;;11.90;4.00;;;;;;;12.66;56.29;101437.31;5033790;28;20029;-55
2022/04/10 08:08:47;;;;;;;14.30;4.10;;;;;;;12.51;56.28;101445.53;5047488;23;20079;-55
2022/04/10 08:11:13;;;;;;;17.90;3.90;;;;;;;12.32;56.85;101440.94;5051504;28;20029;-55
2022/04/10 08:13:39;;;;;;;23.75;4.18;;;;;;;12.47;56.35;101438.09;5051595;28;20029;-55
2022/04/10 08:16:05;;;;;;;14.57;3.92;;;;;;;12.52;56.49;101436.44;5053381;28;20041;-56
2022/04/10 08:18:31;;;;;;;13.82;4.60;;;;;;;12.58;56.01;101434.81;5052724;28;20029;-55
2022/04/10 08:20:58;;;;;;;13.23;4.40;;;;;;;12.48;56.59;101435.19;5053437;28;20036;-55
2022/04/10 08:23:24;;;;;;;14.13;4.10;;;;;;;12.45;56.02;101429.44;5053474;28;20037;-55
2022/04/10 08:25:50;;;;;;;15.23;4.63;;;;;;;12.33;56.83;101430.03;5052649;28;20068;-55
2022/04/10 08:28:17;;;;;;;16.77;4.70;;;;;;;12.43;56.42;101432.28;5051912;28;20049;-55
2022/04/10 08:30:43;;;;;;;13.80;4.78;;;;;;;12.08;57.04;101426.22;5035027;28;20037;-54
2022/04/10 08:33:09;;;;;;;13.48;4.38;;;;;;;12.09;57.35;101422.50;5052006;28;20021;-54
2022/04/10 08:35:35;;;;;;;20.52;4.22;;;;;;;12.16;56.83;101415.31;5050500;28;20041;-54
2022/04/10 08:38:02;;;;;;;19.15;4.38;;;;;;;12.14;57.05;101414.69;5053180;28;20029;-56
2022/04/10 08:40:31;;;;;;;20.45;4.28;;;;;;;12.18;56.90;101413.25;5033648;28;20036;-54
2022/04/10 08:43:02;;;;;;;10.52;3.70;;;;;;;12.20;56.59;101421.91;5051232;28;20033;-55
2022/04/10 08:45:29;;;;;;;11.10;3.45;;;;;;;12.22;56.58;101421.75;5051725;28;20484;-54
2022/04/10 08:47:56;;;;;;;13.45;4.00;;;;;;;12.15;56.51;101419.00;5053356;28;20029;-55
2022/04/10 08:50:24;;;;;;;15.70;4.15;;;;;;;12.19;56.18;101409.53;5051518;28;20021;-55
2022/04/10 08:52:54;;;;;;;16.45;3.72;;;;;;;12.13;56.51;101413.03;5052789;28;20278;-54
2022/04/10 08:55:20;;;;;;;13.50;3.67;;;;;;;11.96;56.93;101422.47;5051835;28;20025;-55
2022/04/10 08:57:46;;;;;;;13.63;4.22;;;;;;;11.86;57.00;101417.47;5051647;28;20492;-54
2022/04/10 09:00:15;;;;;;;14.60;3.55;;;;;;;11.91;56.68;101404.28;5052382;28;20025;-54
2022/04/10 09:02:49;;;;;;;12.18;3.50;;;;;;;11.91;56.61;101406.97;5051526;28;20036;-54
2022/04/10 09:05:20;;;;;;;13.63;4.05;;;;;;;11.72;56.65;101397.81;5051877;28;20082;-55
2022/04/10 09:08:12;;;;;;;17.23;4.18;;;;;;;11.69;56.42;101398.19;5052558;28;20033;-54
2022/04/10 09:11:03;;;;;;;10.23;3.05;;;;;;;11.59;56.26;101401.22;5051290;28;20545;-55
2022/04/10 09:13:33;;;;;;;12.38;3.35;;;;;;;11.46;56.37;101397.66;5050865;28;20116;-55
2022/04/10 09:16:09;;;;;;;12.40;2.90;;;;;;;11.59;55.80;101401.22;5051334;28;20033;-54
2022/04/10 09:18:47;;;;;;;7.22;2.88;;;;;;;11.76;55.27;101399.03;5052891;28;20021;-55
2022/04/10 09:21:15;;;;;;;9.98;3.35;;;;;;;11.71;55.61;101385.41;5051224;28;20029;-55
2022/04/10 09:23:45;;;;;;;8.95;3.00;;;;;;;11.64;55.82;101389.91;5052560;28;20044;-54
2022/04/10 09:26:13;;;;;;;14.35;3.22;;;;;;;11.66;55.79;101393.25;5051280;28;20087;-55
2022/04/10 09:28:42;;;;;;;12.23;3.17;;;;;;;11.69;55.66;101384.78;5051984;28;20111;-54
2022/04/10 09:31:32;;;;;;;11.20;3.20;;;;;;;11.68;55.82;101390.34;5051031;28;20469;-55
2022/04/10 09:34:07;;;;;;;13.60;3.20;;;;;;;11.83;55.50;101386.53;5049824;28;20049;-55
2022/04/10 09:36:34;;;;;;;9.77;3.20;;;;;;;11.62;55.51;101390.13;5051207;28;20025;-53
2022/04/10 09:39:03;;;;;;;9.70;3.45;;;;;;;11.53;54.95;101393.16;5052256;28;20028;-54
2022/04/10 09:41:30;;;;;;;15.05;3.75;;;;;;;11.43;55.86;101387.31;5050740;28;20108;-55
2022/04/10 09:44:01;;;;;;;7.97;2.58;;;;;;;11.37;55.98;101389.78;5051668;28;20032;-54
2022/04/10 09:46:27;;;;;;;14.25;3.10;;;;;;;11.45;55.56;101386.13;5050983;28;20029;-53
2022/04/10 09:48:53;;;;;;;10.70;2.92;;;;;;;11.36;54.86;101388.13;5050607;28;20389;-54
2022/04/10 09:51:19;;;;;;;10.82;3.28;;;;;;;11.52;54.29;101386.97;5050884;28;20100;-54
2022/04/10 09:54:03;;;;;;;10.38;3.17;;;;;;;11.56;52.94;101392.78;5051246;28;20039;-55
2022/04/10 09:56:30;;;;;;;6.03;2.55;;;;;;;11.49;52.98;101386.53;5050545;28;20064;-54
2022/04/10 09:59:00;;;;;;;10.60;2.30;;;;;;;11.53;52.95;101380.56;5050657;28;20373;-54
2022/04/10 10:01:29;;;;;;;12.32;3.58;;;;;;;11.60;52.04;101370.72;5050659;28;20029;-55
2022/04/10 10:03:57;;;;;;;6.55;2.63;;;;;;;11.72;51.84;101370.97;5049259;28;20044;-55
2022/04/10 10:06:25;;;;;;;10.75;2.95;;;;;;;11.62;52.58;101365.16;5051731;28;20047;-53
2022/04/10 10:08:52;;;;;;;9.07;2.58;;;;;;;11.39;53.63;101375.38;5049285;28;20110;-54
2022/04/10 10:11:19;;;;;;;8.70;2.70;;;;;;;11.28;54.45;101374.91;5051069;28;20035;-54
2022/04/10 10:13:47;;;;;;;8.18;3.22;;;;;;;11.10;55.18;101371.88;5050022;28;20119;-53
2022/04/10 10:16:13;;;;;;;8.23;2.63;;;;;;;11.04;55.79;101369.97;5051487;28;20025;-54
2022/04/10 10:18:40;;;;;;;8.82;2.70;;;;;;;11.07;55.34;101372.28;5050751;28;20400;-54
2022/04/10 10:21:10;;;;;;;9.65;2.28;;;;;;;10.95;55.55;101374.69;5049816;28;20033;-55
2022/04/10 10:23:36;;;;;;;7.53;2.50;;;;;;;10.95;53.75;101380.03;5051786;28;20109;-54
2022/04/10 10:26:19;;;;;;;7.82;2.15;;;;;;;11.14;53.30;101370.47;5050010;28;20029;-55
2022/04/10 10:29:30;;;;;;;8.07;2.20;;;;;;;11.42;52.14;101364.22;5051401;28;20111;-54
2022/04/10 10:32:34;;;;;;;7.15;2.28;;;;;;;11.42;50.63;101353.50;4931780;29;20046;-53
2022/04/10 10:35:00;;;;;;;9.65;2.58;;;;;;;11.41;50.77;101354.53;4994599;28;20045;-54
2022/04/10 10:37:32;;;;;;;6.38;1.83;;;;;;;11.22;51.20;101359.59;5043588;28;20037;-55
2022/04/10 10:39:59;;;;;;;7.05;1.80;;;;;;;11.48;50.92;101355.38;5049920;28;20541;-54
2022/04/10 10:42:25;;;;;;;7.13;2.22;;;;;;;11.63;50.18;101350.72;5051170;28;20032;-54
2022/04/10 10:44:52;;;;;;;10.90;2.20;;;;;;;11.77;50.85;101355.13;5048960;28;20036;-54
2022/04/10 10:47:22;;;;;;;8.02;2.85;;;;;;;11.88;51.40;101359.94;5051328;28;20024;-53
2022/04/10 10:49:50;;;;;;;10.00;2.35;;;;;;;11.85;51.82;101354.97;5049924;28;20029;-55
2022/04/10 10:52:17;;;;;;;5.60;2.20;;;;;;;11.85;52.24;101360.31;5048832;28;20099;-53
2022/04/10 10:54:56;;;;;;;6.63;2.35;;;;;;;11.88;52.22;101359.94;5049747;28;20040;-54
2022/04/10 10:57:25;;;;;;;9.05;2.30;;;;;;;11.63;53.17;101362.28;5050008;28;20404;-54
2022/04/10 11:00:04;;;;;;;11.80;2.17;;;;;;;11.53;53.75;101361.81;5031120;28;20083;-55
2022/04/10 11:02:36;;;;;;;7.07;3.05;;;;;;;11.50;54.55;101364.09;5032077;28;20026;-56
2022/04/10 11:05:25;;;;;;;10.93;3.00;;;;;;;11.63;54.77;101361.44;5035557;28;20498;-54
2022/04/10 11:08:08;;;;;;;8.93;2.60;;;;;;;11.39;55.71;101376.19;5053760;28;20029;-54
2022/04/10 11:11:05;;;;;;;9.57;2.33;;;;;;;11.37;55.71;101376.38;5054430;28;20056;-54
2022/04/10 11:13:42;;;;;;;10.35;2.42;;;;;;;11.34;55.69;101368.75;5053700;28;20119;-53
2022/04/10 11:16:11;;;;;;;10.25;2.38;;;;;;;11.18;56.25;101374.41;5052998;28;20033;-54
2022/04/10 11:19:02;;;;;;;5.35;2.22;;;;;;;11.24;55.80;101370.94;5054733;28;20031;-54
2022/04/10 11:21:31;;;;;;;5.88;2.05;;;;;;;11.35;55.06;101358.84;5051574;28;20559;-54
2022/04/10 11:23:58;;;;;;;7.72;2.53;;;;;;;11.39;55.15;101353.94;5016788;28;20489;-55
2022/04/10 11:26:27;;;;;;;8.90;2.65;;;;;;;11.30;54.93;101342.53;5045019;28;20033;-54
2022/04/10 11:28:56;;;;;;;9.90;2.63;;;;;;;11.25;55.05;101337.75;5054601;28;20379;-55
2022/04/10 11:31:33;;;;;;;9.50;2.63;;;;;;;11.38;54.72;101347.72;5053544;28;20021;-54